Coolville, Ohio
Current Conditions -  °F | °C
As of 11:53 PM on Saturday 27 Dec 2014 (Local Time) from KPKB Reporting Station
Overcast Overcast  
Wind Chill: 54°   Ceiling: 4400
Heat Index: 54°   Visibility: 10mi
Dew Point: 36°   Wind: 6mph
Humidity: 51%   Direction: 250°WSW
Pressure: 30.04"   Gusts: NA
Location:  39.22°N, 81.8°W
Report Text: KPKB 280453Z AUTO 25005KT 10SM OVC044 12/02 A3004 RMK AO2 SLP173 T01220022 401560011
Loading
Personal Weather Stations






























Interactive Weather Map New forecast layout! Learn more

10-Day Weather Forecast

Advertisements
Track Severe Weather on mobile